sensor_id;sensor_type;location;lat;lon;timestamp;temperature;humidity
11144;DHT22;5626;44.730;10.276;2022-10-31T00:02:17;15.70;98.80
11144;DHT22;5626;44.730;10.276;2022-10-31T00:04:49;15.70;98.70
11144;DHT22;5626;44.730;10.276;2022-10-31T00:07:18;15.70;98.70
11144;DHT22;5626;44.730;10.276;2022-10-31T00:09:47;15.70;98.60
11144;DHT22;5626;44.730;10.276;2022-10-31T00:12:17;15.70;98.60
11144;DHT22;5626;44.730;10.276;2022-10-31T00:14:46;15.60;98.60
11144;DHT22;5626;44.730;10.276;2022-10-31T00:17:16;15.60;98.70
11144;DHT22;5626;44.730;10.276;2022-10-31T00:19:45;15.60;98.80
11144;DHT22;5626;44.730;10.276;2022-10-31T00:22:16;15.50;98.70
11144;DHT22;5626;44.730;10.276;2022-10-31T00:24:45;15.50;98.90
11144;DHT22;5626;44.730;10.276;2022-10-31T00:27:15;15.50;98.90
11144;DHT22;5626;44.730;10.276;2022-10-31T00:29:46;15.50;98.80
11144;DHT22;5626;44.730;10.276;2022-10-31T00:32:15;15.50;98.80
11144;DHT22;5626;44.730;10.276;2022-10-31T00:34:45;15.40;98.90
11144;DHT22;5626;44.730;10.276;2022-10-31T00:37:16;15.50;99.00
11144;DHT22;5626;44.730;10.276;2022-10-31T00:39:46;15.40;98.90
11144;DHT22;5626;44.730;10.276;2022-10-31T00:42:17;15.40;99.00
11144;DHT22;5626;44.730;10.276;2022-10-31T00:44:46;15.40;99.00
11144;DHT22;5626;44.730;10.276;2022-10-31T00:47:16;15.30;99.10
11144;DHT22;5626;44.730;10.276;2022-10-31T00:49:46;15.30;99.00
11144;DHT22;5626;44.730;10.276;2022-10-31T00:52:17;15.40;99.20
11144;DHT22;5626;44.730;10.276;2022-10-31T00:54:47;15.30;99.00
11144;DHT22;5626;44.730;10.276;2022-10-31T00:57:16;15.30;99.10
11144;DHT22;5626;44.730;10.276;2022-10-31T00:59:47;15.30;99.30
11144;DHT22;5626;44.730;10.276;2022-10-31T01:02:18;15.30;99.10
11144;DHT22;5626;44.730;10.276;2022-10-31T01:04:51;15.20;99.10
11144;DHT22;5626;44.730;10.276;2022-10-31T01:07:22;15.20;99.00
11144;DHT22;5626;44.730;10.276;2022-10-31T01:09:52;15.20;99.00
11144;DHT22;5626;44.730;10.276;2022-10-31T01:12:21;15.20;98.90
11144;DHT22;5626;44.730;10.276;2022-10-31T01:14:51;15.20;99.10
11144;DHT22;5626;44.730;10.276;2022-10-31T01:17:21;15.20;98.90
11144;DHT22;5626;44.730;10.276;2022-10-31T01:19:50;15.20;98.90
11144;DHT22;5626;44.730;10.276;2022-10-31T01:22:21;15.20;98.90
11144;DHT22;5626;44.730;10.276;2022-10-31T01:24:51;15.30;98.90
11144;DHT22;5626;44.730;10.276;2022-10-31T01:27:20;15.30;98.80
11144;DHT22;5626;44.730;10.276;2022-10-31T01:29:49;15.30;98.80
11144;DHT22;5626;44.730;10.276;2022-10-31T01:32:19;15.30;98.90
11144;DHT22;5626;44.730;10.276;2022-10-31T01:34:50;15.30;98.90
11144;DHT22;5626;44.730;10.276;2022-10-31T01:37:21;15.30;99.00
11144;DHT22;5626;44.730;10.276;2022-10-31T01:39:51;15.30;99.10
11144;DHT22;5626;44.730;10.276;2022-10-31T01:42:22;15.30;98.90
11144;DHT22;5626;44.730;10.276;2022-10-31T01:44:58;15.30;99.00
11144;DHT22;5626;44.730;10.276;2022-10-31T01:47:33;15.20;99.00
11144;DHT22;5626;44.730;10.276;2022-10-31T01:50:09;15.20;99.10
11144;DHT22;5626;44.730;10.276;2022-10-31T01:52:44;15.10;99.10
11144;DHT22;5626;44.730;10.276;2022-10-31T01:55:19;15.10;99.10
11144;DHT22;5626;44.730;10.276;2022-10-31T01:57:53;15.10;99.10
11144;DHT22;5626;44.730;10.276;2022-10-31T02:00:24;15.10;99.00
11144;DHT22;5626;44.730;10.276;2022-10-31T02:02:53;15.20;99.00
11144;DHT22;5626;44.730;10.276;2022-10-31T02:05:25;15.20;98.90
11144;DHT22;5626;44.730;10.276;2022-10-31T02:08:01;15.20;98.90
11144;DHT22;5626;44.730;10.276;2022-10-31T02:10:33;15.20;99.10
11144;DHT22;5626;44.730;10.276;2022-10-31T02:13:05;15.20;98.80
11144;DHT22;5626;44.730;10.276;2022-10-31T02:15:43;15.20;98.80
11144;DHT22;5626;44.730;10.276;2022-10-31T02:18:13;15.20;98.80
11144;DHT22;5626;44.730;10.276;2022-10-31T02:20:52;15.20;98.70
11144;DHT22;5626;44.730;10.276;2022-10-31T02:23:47;15.10;98.80
11144;DHT22;5626;44.730;10.276;2022-10-31T02:26:41;15.10;98.90
11144;DHT22;5626;44.730;10.276;2022-10-31T02:29:31;15.10;98.90
11144;DHT22;5626;44.730;10.276;2022-10-31T02:32:09;15.00;98.90
11144;DHT22;5626;44.730;10.276;2022-10-31T02:34:46;15.00;99.10
11144;DHT22;5626;44.730;10.276;2022-10-31T02:37:24;15.10;99.00
11144;DHT22;5626;44.730;10.276;2022-10-31T02:39:59;15.00;99.00
11144;DHT22;5626;44.730;10.276;2022-10-31T02:43:03;15.00;99.00
11144;DHT22;5626;44.730;10.276;2022-10-31T02:45:39;15.00;99.10
11144;DHT22;5626;44.730;10.276;2022-10-31T02:48:17;15.10;99.10
11144;DHT22;5626;44.730;10.276;2022-10-31T02:50:52;15.10;99.20
11144;DHT22;5626;44.730;10.276;2022-10-31T02:53:22;15.10;99.10
11144;DHT22;5626;44.730;10.276;2022-10-31T02:55:58;15.10;99.10
11144;DHT22;5626;44.730;10.276;2022-10-31T02:58:32;15.10;99.10
11144;DHT22;5626;44.730;10.276;2022-10-31T03:01:26;15.10;99.10
11144;DHT22;5626;44.730;10.276;2022-10-31T03:04:15;15.00;99.10
11144;DHT22;5626;44.730;10.276;2022-10-31T03:06:49;15.00;99.20
11144;DHT22;5626;44.730;10.276;2022-10-31T03:09:26;15.00;99.20
11144;DHT22;5626;44.730;10.276;2022-10-31T03:12:04;15.00;99.10
11144;DHT22;5626;44.730;10.276;2022-10-31T03:14:40;15.00;99.20
11144;DHT22;5626;44.730;10.276;2022-10-31T03:17:14;15.00;99.20
11144;DHT22;5626;44.730;10.276;2022-10-31T03:19:50;15.00;99.30
11144;DHT22;5626;44.730;10.276;2022-10-31T03:22:25;15.00;99.30
11144;DHT22;5626;44.730;10.276;2022-10-31T03:24:56;15.00;99.40
11144;DHT22;5626;44.730;10.276;2022-10-31T03:27:28;15.00;99.30
11144;DHT22;5626;44.730;10.276;2022-10-31T03:30:03;15.00;99.40
11144;DHT22;5626;44.730;10.276;2022-10-31T03:32:44;15.00;99.40
11144;DHT22;5626;44.730;10.276;2022-10-31T03:35:18;15.00;99.40
11144;DHT22;5626;44.730;10.276;2022-10-31T03:37:49;15.00;99.40
11144;DHT22;5626;44.730;10.276;2022-10-31T03:40:22;15.00;99.40
11144;DHT22;5626;44.730;10.276;2022-10-31T03:42:57;15.00;99.30
11144;DHT22;5626;44.730;10.276;2022-10-31T03:45:30;15.00;99.40
11144;DHT22;5626;44.730;10.276;2022-10-31T03:47:59;15.00;99.40
11144;DHT22;5626;44.730;10.276;2022-10-31T03:50:38;15.00;99.60
11144;DHT22;5626;44.730;10.276;2022-10-31T03:53:10;14.90;99.50
11144;DHT22;5626;44.730;10.276;2022-10-31T03:55:48;14.90;99.60
11144;DHT22;5626;44.730;10.276;2022-10-31T03:58:21;14.90;99.60
11144;DHT22;5626;44.730;10.276;2022-10-31T04:00:54;14.80;99.60
11144;DHT22;5626;44.730;10.276;2022-10-31T04:03:26;14.80;99.60
11144;DHT22;5626;44.730;10.276;2022-10-31T04:06:04;14.70;99.60
11144;DHT22;5626;44.730;10.276;2022-10-31T04:08:41;14.70;99.70
11144;DHT22;5626;44.730;10.276;2022-10-31T04:11:17;14.70;99.80
11144;DHT22;5626;44.730;10.276;2022-10-31T04:14:02;14.70;99.80
11144;DHT22;5626;44.730;10.276;2022-10-31T04:16:36;14.60;99.90
11144;DHT22;5626;44.730;10.276;2022-10-31T04:19:06;14.60;99.90
11144;DHT22;5626;44.730;10.276;2022-10-31T04:21:37;14.60;99.90
11144;DHT22;5626;44.730;10.276;2022-10-31T04:24:06;14.60;99.90
11144;DHT22;5626;44.730;10.276;2022-10-31T04:26:36;14.60;99.90
11144;DHT22;5626;44.730;10.276;2022-10-31T04:29:06;14.50;99.90
11144;DHT22;5626;44.730;10.276;2022-10-31T04:31:35;14.50;99.90
11144;DHT22;5626;44.730;10.276;2022-10-31T04:34:05;14.50;99.90
11144;DHT22;5626;44.730;10.276;2022-10-31T04:36:36;14.40;99.90
11144;DHT22;5626;44.730;10.276;2022-10-31T04:39:07;14.40;99.90
11144;DHT22;5626;44.730;10.276;2022-10-31T04:42:04;14.40;99.90
11144;DHT22;5626;44.730;10.276;2022-10-31T04:44:34;14.40;99.90
11144;DHT22;5626;44.730;10.276;2022-10-31T04:47:04;14.40;99.90
11144;DHT22;5626;44.730;10.276;2022-10-31T04:49:33;14.40;99.90
11144;DHT22;5626;44.730;10.276;2022-10-31T04:52:04;14.40;99.90
11144;DHT22;5626;44.730;10.276;2022-10-31T04:54:35;14.50;99.90
11144;DHT22;5626;44.730;10.276;2022-10-31T04:57:40;14.50;99.90
11144;DHT22;5626;44.730;10.276;2022-10-31T05:00:12;14.50;99.90
11144;DHT22;5626;44.730;10.276;2022-10-31T05:02:43;14.50;99.90
11144;DHT22;5626;44.730;10.276;2022-10-31T05:05:13;14.50;99.90
11144;DHT22;5626;44.730;10.276;2022-10-31T05:07:46;14.50;99.80
11144;DHT22;5626;44.730;10.276;2022-10-31T05:10:18;14.50;99.80
11144;DHT22;5626;44.730;10.276;2022-10-31T05:12:51;14.50;99.90
11144;DHT22;5626;44.730;10.276;2022-10-31T05:15:40;14.50;99.80
11144;DHT22;5626;44.730;10.276;2022-10-31T05:18:35;14.50;99.80
11144;DHT22;5626;44.730;10.276;2022-10-31T05:21:14;14.40;99.80
11144;DHT22;5626;44.730;10.276;2022-10-31T05:23:53;14.40;99.90
11144;DHT22;5626;44.730;10.276;2022-10-31T05:26:24;14.30;99.90
11144;DHT22;5626;44.730;10.276;2022-10-31T05:28:55;14.30;99.90
11144;DHT22;5626;44.730;10.276;2022-10-31T05:31:24;14.20;99.90
11144;DHT22;5626;44.730;10.276;2022-10-31T05:33:54;14.20;99.90
11144;DHT22;5626;44.730;10.276;2022-10-31T05:36:50;14.20;99.90
11144;DHT22;5626;44.730;10.276;2022-10-31T05:39:24;14.20;99.90
11144;DHT22;5626;44.730;10.276;2022-10-31T05:41:57;14.20;99.90
11144;DHT22;5626;44.730;10.276;2022-10-31T05:44:27;14.20;99.90
11144;DHT22;5626;44.730;10.276;2022-10-31T05:47:35;14.20;99.90
11144;DHT22;5626;44.730;10.276;2022-10-31T05:50:34;14.20;99.90
11144;DHT22;5626;44.730;10.276;2022-10-31T05:53:09;14.20;99.90
11144;DHT22;5626;44.730;10.276;2022-10-31T05:55:42;14.20;99.90
11144;DHT22;5626;44.730;10.276;2022-10-31T05:58:15;14.20;99.90
11144;DHT22;5626;44.730;10.276;2022-10-31T06:00:51;14.20;99.90
11144;DHT22;5626;44.730;10.276;2022-10-31T06:03:20;14.30;99.80
11144;DHT22;5626;44.730;10.276;2022-10-31T06:05:54;14.30;99.80
11144;DHT22;5626;44.730;10.276;2022-10-31T06:08:50;14.30;99.80
11144;DHT22;5626;44.730;10.276;2022-10-31T06:11:24;14.30;99.80
11144;DHT22;5626;44.730;10.276;2022-10-31T06:14:02;14.30;99.80
11144;DHT22;5626;44.730;10.276;2022-10-31T06:16:46;14.40;99.70
11144;DHT22;5626;44.730;10.276;2022-10-31T06:19:34;14.50;99.50
11144;DHT22;5626;44.730;10.276;2022-10-31T06:22:04;14.50;99.40
11144;DHT22;5626;44.730;10.276;2022-10-31T06:24:34;14.60;99.20
11144;DHT22;5626;44.730;10.276;2022-10-31T06:27:40;14.70;99.10
11144;DHT22;5626;44.730;10.276;2022-10-31T06:30:14;14.70;98.90
11144;DHT22;5626;44.730;10.276;2022-10-31T06:32:45;14.80;98.70
11144;DHT22;5626;44.730;10.276;2022-10-31T06:35:15;14.90;98.70
11144;DHT22;5626;44.730;10.276;2022-10-31T06:37:53;14.90;98.60
11144;DHT22;5626;44.730;10.276;2022-10-31T06:40:37;14.90;98.70
11144;DHT22;5626;44.730;10.276;2022-10-31T06:43:22;14.90;98.60
11144;DHT22;5626;44.730;10.276;2022-10-31T06:46:05;14.90;99.00
11144;DHT22;5626;44.730;10.276;2022-10-31T06:48:40;14.90;98.70
11144;DHT22;5626;44.730;10.276;2022-10-31T06:51:26;14.90;98.60
11144;DHT22;5626;44.730;10.276;2022-10-31T06:53:55;15.00;98.60
11144;DHT22;5626;44.730;10.276;2022-10-31T06:56:26;15.10;98.30
11144;DHT22;5626;44.730;10.276;2022-10-31T06:58:59;15.20;98.20
11144;DHT22;5626;44.730;10.276;2022-10-31T07:01:49;15.30;98.10
11144;DHT22;5626;44.730;10.276;2022-10-31T07:04:18;15.80;97.80
11144;DHT22;5626;44.730;10.276;2022-10-31T07:06:50;17.20;96.40
11144;DHT22;5626;44.730;10.276;2022-10-31T07:09:20;18.40;94.80
11144;DHT22;5626;44.730;10.276;2022-10-31T07:11:52;19.10;93.60
11144;DHT22;5626;44.730;10.276;2022-10-31T07:14:24;18.80;93.00
11144;DHT22;5626;44.730;10.276;2022-10-31T07:16:54;18.20;93.70
11144;DHT22;5626;44.730;10.276;2022-10-31T07:19:30;18.40;93.90
11144;DHT22;5626;44.730;10.276;2022-10-31T07:21:59;19.50;92.80
11144;DHT22;5626;44.730;10.276;2022-10-31T07:24:30;20.50;91.50
11144;DHT22;5626;44.730;10.276;2022-10-31T07:27:18;21.30;90.20
11144;DHT22;5626;44.730;10.276;2022-10-31T07:29:50;22.80;87.00
11144;DHT22;5626;44.730;10.276;2022-10-31T07:32:19;24.00;82.50
11144;DHT22;5626;44.730;10.276;2022-10-31T07:34:56;24.60;79.50
11144;DHT22;5626;44.730;10.276;2022-10-31T07:37:34;25.70;76.10
11144;DHT22;5626;44.730;10.276;2022-10-31T07:40:04;27.10;72.50
11144;DHT22;5626;44.730;10.276;2022-10-31T07:42:35;28.20;69.30
11144;DHT22;5626;44.730;10.276;2022-10-31T07:45:09;29.10;67.50
11144;DHT22;5626;44.730;10.276;2022-10-31T07:48:11;29.80;64.60
11144;DHT22;5626;44.730;10.276;2022-10-31T07:50:58;30.60;61.60
11144;DHT22;5626;44.730;10.276;2022-10-31T07:53:47;31.20;59.40
11144;DHT22;5626;44.730;10.276;2022-10-31T07:56:24;31.80;57.60
11144;DHT22;5626;44.730;10.276;2022-10-31T07:58:53;32.20;56.50
11144;DHT22;5626;44.730;10.276;2022-10-31T08:01:24;32.60;55.10
11144;DHT22;5626;44.730;10.276;2022-10-31T08:04:14;33.00;53.50
11144;DHT22;5626;44.730;10.276;2022-10-31T08:07:02;33.50;53.30
11144;DHT22;5626;44.730;10.276;2022-10-31T08:09:35;33.90;52.00
11144;DHT22;5626;44.730;10.276;2022-10-31T08:12:16;34.20;51.00
11144;DHT22;5626;44.730;10.276;2022-10-31T08:14:45;33.70;51.00
11144;DHT22;5626;44.730;10.276;2022-10-31T08:17:19;34.00;49.90
11144;DHT22;5626;44.730;10.276;2022-10-31T08:19:54;33.20;50.70
11144;DHT22;5626;44.730;10.276;2022-10-31T08:22:29;32.00;53.30
11144;DHT22;5626;44.730;10.276;2022-10-31T08:25:00;31.90;52.30
11144;DHT22;5626;44.730;10.276;2022-10-31T08:27:30;31.50;52.40
11144;DHT22;5626;44.730;10.276;2022-10-31T08:30:01;31.60;53.00
11144;DHT22;5626;44.730;10.276;2022-10-31T08:32:33;33.10;51.40
11144;DHT22;5626;44.730;10.276;2022-10-31T08:35:32;34.30;50.30
11144;DHT22;5626;44.730;10.276;2022-10-31T08:38:24;35.00;48.00
11144;DHT22;5626;44.730;10.276;2022-10-31T08:40:55;35.60;47.00
11144;DHT22;5626;44.730;10.276;2022-10-31T08:43:26;35.50;46.50
11144;DHT22;5626;44.730;10.276;2022-10-31T08:45:56;35.50;46.20
11144;DHT22;5626;44.730;10.276;2022-10-31T08:48:30;36.10;46.10
11144;DHT22;5626;44.730;10.276;2022-10-31T08:51:02;35.80;46.20
11144;DHT22;5626;44.730;10.276;2022-10-31T08:53:32;35.80;45.50
11144;DHT22;5626;44.730;10.276;2022-10-31T08:56:25;36.50;45.20
11144;DHT22;5626;44.730;10.276;2022-10-31T08:58:54;37.20;44.20
11144;DHT22;5626;44.730;10.276;2022-10-31T09:01:33;36.80;43.40
11144;DHT22;5626;44.730;10.276;2022-10-31T09:04:07;36.40;44.00
11144;DHT22;5626;44.730;10.276;2022-10-31T09:06:37;35.80;45.00
11144;DHT22;5626;44.730;10.276;2022-10-31T09:09:09;35.70;45.10
11144;DHT22;5626;44.730;10.276;2022-10-31T09:11:39;35.70;45.30
11144;DHT22;5626;44.730;10.276;2022-10-31T09:14:11;35.10;45.60
11144;DHT22;5626;44.730;10.276;2022-10-31T09:17:10;34.90;46.10
11144;DHT22;5626;44.730;10.276;2022-10-31T09:20:10;34.90;46.60
11144;DHT22;5626;44.730;10.276;2022-10-31T09:22:40;35.30;46.50
11144;DHT22;5626;44.730;10.276;2022-10-31T09:25:10;36.10;45.00
11144;DHT22;5626;44.730;10.276;2022-10-31T09:27:41;36.80;43.60
11144;DHT22;5626;44.730;10.276;2022-10-31T09:30:12;37.00;43.30
11144;DHT22;5626;44.730;10.276;2022-10-31T09:32:43;36.60;43.60
11144;DHT22;5626;44.730;10.276;2022-10-31T09:35:15;36.10;44.00
11144;DHT22;5626;44.730;10.276;2022-10-31T09:37:44;36.10;44.50
11144;DHT22;5626;44.730;10.276;2022-10-31T09:40:14;36.70;43.30
11144;DHT22;5626;44.730;10.276;2022-10-31T09:42:56;37.40;42.40
11144;DHT22;5626;44.730;10.276;2022-10-31T09:45:32;37.70;41.60
11144;DHT22;5626;44.730;10.276;2022-10-31T09:48:36;37.30;42.20
11144;DHT22;5626;44.730;10.276;2022-10-31T09:51:18;37.90;41.40
11144;DHT22;5626;44.730;10.276;2022-10-31T09:54:16;38.10;41.20
11144;DHT22;5626;44.730;10.276;2022-10-31T09:56:47;37.20;42.10
11144;DHT22;5626;44.730;10.276;2022-10-31T09:59:26;37.30;41.90
11144;DHT22;5626;44.730;10.276;2022-10-31T10:02:02;37.60;41.80
11144;DHT22;5626;44.730;10.276;2022-10-31T10:04:37;37.90;41.00
11144;DHT22;5626;44.730;10.276;2022-10-31T10:07:29;37.80;40.50
11144;DHT22;5626;44.730;10.276;2022-10-31T10:10:23;38.30;40.60
11144;DHT22;5626;44.730;10.276;2022-10-31T10:16:03;38.20;41.10
11144;DHT22;5626;44.730;10.276;2022-10-31T10:18:48;38.70;39.70
11144;DHT22;5626;44.730;10.276;2022-10-31T10:21:26;39.30;38.90
11144;DHT22;5626;44.730;10.276;2022-10-31T10:24:26;39.50;38.40
11144;DHT22;5626;44.730;10.276;2022-10-31T10:27:05;39.60;38.00
11144;DHT22;5626;44.730;10.276;2022-10-31T10:29:44;39.50;37.90
11144;DHT22;5626;44.730;10.276;2022-10-31T10:32:19;39.40;38.40
11144;DHT22;5626;44.730;10.276;2022-10-31T10:34:54;38.90;38.70
11144;DHT22;5626;44.730;10.276;2022-10-31T10:37:29;38.90;38.70
11144;DHT22;5626;44.730;10.276;2022-10-31T10:40:11;38.50;39.30
11144;DHT22;5626;44.730;10.276;2022-10-31T10:42:42;38.40;39.50
11144;DHT22;5626;44.730;10.276;2022-10-31T10:45:31;38.70;38.90
11144;DHT22;5626;44.730;10.276;2022-10-31T10:48:24;38.90;39.00
11144;DHT22;5626;44.730;10.276;2022-10-31T10:50:57;38.40;39.20
11144;DHT22;5626;44.730;10.276;2022-10-31T10:53:38;38.70;38.70
11144;DHT22;5626;44.730;10.276;2022-10-31T10:56:24;39.10;37.70
11144;DHT22;5626;44.730;10.276;2022-10-31T10:58:55;39.50;37.50
11144;DHT22;5626;44.730;10.276;2022-10-31T11:01:25;39.90;37.10
11144;DHT22;5626;44.730;10.276;2022-10-31T11:03:54;40.10;36.60
11144;DHT22;5626;44.730;10.276;2022-10-31T11:06:24;40.50;36.80
11144;DHT22;5626;44.730;10.276;2022-10-31T11:08:54;40.40;36.40
11144;DHT22;5626;44.730;10.276;2022-10-31T11:11:27;39.70;36.80
11144;DHT22;5626;44.730;10.276;2022-10-31T11:14:01;39.30;38.10
11144;DHT22;5626;44.730;10.276;2022-10-31T11:16:34;39.80;37.40
11144;DHT22;5626;44.730;10.276;2022-10-31T11:19:12;40.10;36.60
11144;DHT22;5626;44.730;10.276;2022-10-31T11:21:43;40.60;36.00
11144;DHT22;5626;44.730;10.276;2022-10-31T11:24:18;40.80;35.90
11144;DHT22;5626;44.730;10.276;2022-10-31T11:26:50;40.70;35.80
11144;DHT22;5626;44.730;10.276;2022-10-31T11:29:21;40.80;35.50
11144;DHT22;5626;44.730;10.276;2022-10-31T11:31:54;40.70;35.50
11144;DHT22;5626;44.730;10.276;2022-10-31T11:34:29;41.00;35.20
11144;DHT22;5626;44.730;10.276;2022-10-31T11:37:04;41.30;35.00
11144;DHT22;5626;44.730;10.276;2022-10-31T11:39:41;41.20;35.10
11144;DHT22;5626;44.730;10.276;2022-10-31T11:42:13;40.80;34.80
11144;DHT22;5626;44.730;10.276;2022-10-31T11:44:43;40.90;35.50
11144;DHT22;5626;44.730;10.276;2022-10-31T11:47:16;41.00;35.10
11144;DHT22;5626;44.730;10.276;2022-10-31T11:49:47;40.80;35.20
11144;DHT22;5626;44.730;10.276;2022-10-31T11:52:20;40.70;35.00
11144;DHT22;5626;44.730;10.276;2022-10-31T11:54:54;40.70;35.70
11144;DHT22;5626;44.730;10.276;2022-10-31T11:57:28;40.60;35.60
11144;DHT22;5626;44.730;10.276;2022-10-31T11:59:59;40.30;35.80
11144;DHT22;5626;44.730;10.276;2022-10-31T12:02:38;39.40;36.30
11144;DHT22;5626;44.730;10.276;2022-10-31T12:05:17;38.70;37.10
11144;DHT22;5626;44.730;10.276;2022-10-31T12:07:48;38.40;37.80
11144;DHT22;5626;44.730;10.276;2022-10-31T12:10:21;37.60;39.00
11144;DHT22;5626;44.730;10.276;2022-10-31T12:13:02;35.90;41.30
11144;DHT22;5626;44.730;10.276;2022-10-31T12:15:37;33.90;44.20
11144;DHT22;5626;44.730;10.276;2022-10-31T12:18:35;32.10;46.90
11144;DHT22;5626;44.730;10.276;2022-10-31T12:21:19;30.40;50.00
11144;DHT22;5626;44.730;10.276;2022-10-31T12:24:00;29.30;52.70
11144;DHT22;5626;44.730;10.276;2022-10-31T12:26:37;28.50;54.60
11144;DHT22;5626;44.730;10.276;2022-10-31T12:29:24;28.20;55.90
11144;DHT22;5626;44.730;10.276;2022-10-31T12:32:04;29.90;54.00
11144;DHT22;5626;44.730;10.276;2022-10-31T12:34:54;30.60;51.80
11144;DHT22;5626;44.730;10.276;2022-10-31T12:37:39;29.50;53.60
11144;DHT22;5626;44.730;10.276;2022-10-31T12:40:25;28.50;55.00
11144;DHT22;5626;44.730;10.276;2022-10-31T12:43:08;27.60;57.70
11144;DHT22;5626;44.730;10.276;2022-10-31T12:45:51;27.10;58.00
11144;DHT22;5626;44.730;10.276;2022-10-31T12:48:48;26.80;59.20
11144;DHT22;5626;44.730;10.276;2022-10-31T12:51:26;26.50;60.50
11144;DHT22;5626;44.730;10.276;2022-10-31T12:54:11;27.40;59.70
11144;DHT22;5626;44.730;10.276;2022-10-31T12:56:50;30.00;54.60
11144;DHT22;5626;44.730;10.276;2022-10-31T12:59:29;31.50;51.20
11144;DHT22;5626;44.730;10.276;2022-10-31T13:02:13;32.10;49.70
11144;DHT22;5626;44.730;10.276;2022-10-31T13:04:50;31.40;50.50
11144;DHT22;5626;44.730;10.276;2022-10-31T13:07:25;30.80;51.10
11144;DHT22;5626;44.730;10.276;2022-10-31T13:10:00;30.10;52.40
11144;DHT22;5626;44.730;10.276;2022-10-31T13:12:33;29.30;54.70
11144;DHT22;5626;44.730;10.276;2022-10-31T13:15:11;28.50;56.60
11144;DHT22;5626;44.730;10.276;2022-10-31T13:17:45;28.00;57.60
11144;DHT22;5626;44.730;10.276;2022-10-31T13:20:20;27.50;58.30
11144;DHT22;5626;44.730;10.276;2022-10-31T13:22:55;27.00;59.50
11144;DHT22;5626;44.730;10.276;2022-10-31T13:25:30;26.60;60.80
11144;DHT22;5626;44.730;10.276;2022-10-31T13:28:05;26.30;61.70
11144;DHT22;5626;44.730;10.276;2022-10-31T13:30:40;26.10;62.10
11144;DHT22;5626;44.730;10.276;2022-10-31T13:33:15;26.00;62.10
11144;DHT22;5626;44.730;10.276;2022-10-31T13:35:50;25.80;62.50
11144;DHT22;5626;44.730;10.276;2022-10-31T13:38:24;25.60;62.50
11144;DHT22;5626;44.730;10.276;2022-10-31T13:41:01;25.50;62.90
11144;DHT22;5626;44.730;10.276;2022-10-31T13:43:37;25.30;64.30
11144;DHT22;5626;44.730;10.276;2022-10-31T13:46:22;25.30;64.30
11144;DHT22;5626;44.730;10.276;2022-10-31T13:48:54;25.10;65.20
11144;DHT22;5626;44.730;10.276;2022-10-31T13:51:27;24.90;65.50
11144;DHT22;5626;44.730;10.276;2022-10-31T13:53:59;24.80;65.90
11144;DHT22;5626;44.730;10.276;2022-10-31T13:56:30;24.70;66.40
11144;DHT22;5626;44.730;10.276;2022-10-31T13:59:17;24.70;66.30
11144;DHT22;5626;44.730;10.276;2022-10-31T14:01:51;24.50;66.50
11144;DHT22;5626;44.730;10.276;2022-10-31T14:04:23;24.40;66.70
11144;DHT22;5626;44.730;10.276;2022-10-31T14:06:57;24.30;67.50
11144;DHT22;5626;44.730;10.276;2022-10-31T14:09:31;24.20;67.80
11144;DHT22;5626;44.730;10.276;2022-10-31T14:12:04;24.20;67.40
11144;DHT22;5626;44.730;10.276;2022-10-31T14:14:43;24.20;67.80
11144;DHT22;5626;44.730;10.276;2022-10-31T14:17:19;24.10;67.90
11144;DHT22;5626;44.730;10.276;2022-10-31T14:20:31;24.10;68.50
11144;DHT22;5626;44.730;10.276;2022-10-31T14:26:07;23.90;68.20
11144;DHT22;5626;44.730;10.276;2022-10-31T14:28:46;23.90;68.00
11144;DHT22;5626;44.730;10.276;2022-10-31T14:31:32;23.90;68.30
11144;DHT22;5626;44.730;10.276;2022-10-31T14:34:21;23.90;68.30
11144;DHT22;5626;44.730;10.276;2022-10-31T14:37:27;23.80;68.40
11144;DHT22;5626;44.730;10.276;2022-10-31T14:40:07;23.70;68.60
11144;DHT22;5626;44.730;10.276;2022-10-31T14:42:54;23.60;69.20
11144;DHT22;5626;44.730;10.276;2022-10-31T14:45:34;23.50;69.60
11144;DHT22;5626;44.730;10.276;2022-10-31T14:48:22;23.30;71.20
11144;DHT22;5626;44.730;10.276;2022-10-31T14:50:55;23.20;71.50
11144;DHT22;5626;44.730;10.276;2022-10-31T14:53:30;23.10;71.70
11144;DHT22;5626;44.730;10.276;2022-10-31T14:56:01;23.00;71.70
11144;DHT22;5626;44.730;10.276;2022-10-31T14:58:37;23.00;72.30
11144;DHT22;5626;44.730;10.276;2022-10-31T15:01:15;22.90;72.50
11144;DHT22;5626;44.730;10.276;2022-10-31T15:03:46;22.90;74.00
11144;DHT22;5626;44.730;10.276;2022-10-31T15:06:37;22.80;75.00
11144;DHT22;5626;44.730;10.276;2022-10-31T15:09:23;22.70;75.10
11144;DHT22;5626;44.730;10.276;2022-10-31T15:11:53;22.60;75.60
11144;DHT22;5626;44.730;10.276;2022-10-31T15:14:25;22.60;76.00
11144;DHT22;5626;44.730;10.276;2022-10-31T15:16:57;22.50;76.30
11144;DHT22;5626;44.730;10.276;2022-10-31T15:19:29;22.50;76.40
11144;DHT22;5626;44.730;10.276;2022-10-31T15:22:00;22.40;76.90
11144;DHT22;5626;44.730;10.276;2022-10-31T15:24:34;22.40;77.10
11144;DHT22;5626;44.730;10.276;2022-10-31T15:27:05;22.30;76.90
11144;DHT22;5626;44.730;10.276;2022-10-31T15:29:48;22.20;77.10
11144;DHT22;5626;44.730;10.276;2022-10-31T15:32:20;22.20;78.00
11144;DHT22;5626;44.730;10.276;2022-10-31T15:34:51;22.10;78.10
11144;DHT22;5626;44.730;10.276;2022-10-31T15:37:23;22.10;78.50
11144;DHT22;5626;44.730;10.276;2022-10-31T15:39:54;22.10;78.70
11144;DHT22;5626;44.730;10.276;2022-10-31T15:42:28;22.00;78.80
11144;DHT22;5626;44.730;10.276;2022-10-31T15:45:00;21.90;78.80
11144;DHT22;5626;44.730;10.276;2022-10-31T15:47:31;21.90;79.70
11144;DHT22;5626;44.730;10.276;2022-10-31T15:50:03;21.80;80.40
11144;DHT22;5626;44.730;10.276;2022-10-31T15:52:37;21.70;81.40
11144;DHT22;5626;44.730;10.276;2022-10-31T15:55:19;21.60;82.30
11144;DHT22;5626;44.730;10.276;2022-10-31T15:57:51;21.50;82.70
11144;DHT22;5626;44.730;10.276;2022-10-31T16:00:24;21.40;83.00
11144;DHT22;5626;44.730;10.276;2022-10-31T16:03:05;21.20;83.90
11144;DHT22;5626;44.730;10.276;2022-10-31T16:05:37;21.20;85.00
11144;DHT22;5626;44.730;10.276;2022-10-31T16:08:35;21.00;85.90
11144;DHT22;5626;44.730;10.276;2022-10-31T16:11:22;20.80;85.40
11144;DHT22;5626;44.730;10.276;2022-10-31T16:13:57;20.70;85.40
11144;DHT22;5626;44.730;10.276;2022-10-31T16:16:28;20.60;86.60
11144;DHT22;5626;44.730;10.276;2022-10-31T16:19:04;20.50;86.70
11144;DHT22;5626;44.730;10.276;2022-10-31T16:21:36;20.40;87.60
11144;DHT22;5626;44.730;10.276;2022-10-31T16:24:16;20.40;87.90
11144;DHT22;5626;44.730;10.276;2022-10-31T16:26:53;20.30;88.30
11144;DHT22;5626;44.730;10.276;2022-10-31T16:29:32;20.20;89.00
11144;DHT22;5626;44.730;10.276;2022-10-31T16:32:02;20.10;89.50
11144;DHT22;5626;44.730;10.276;2022-10-31T16:34:31;20.00;89.40